Time;durP1;ratioP1;P1;durP2;ratioP2;P2;SDS_P1;SDS_P2;PMS_P1;PMS_P2;Temp;Humidity;BMP_temperature;BMP_pressure;BME280_temperature;BME280_humidity;BME280_pressure;Samples;Min_cycle;Max_cycle;Signal;HPM_P1;HPM_P2
2022/11/29 00:00:59;;;;;;;19.47;14.80;;;7.70;89.80;;;;;;5033082;28;20029;-70
2022/11/29 00:03:26;;;;;;;21.10;14.93;;;7.70;90.10;;;;;;5032675;28;20032;-70
2022/11/29 00:05:52;;;;;;;20.33;14.97;;;7.60;90.00;;;;;;5032589;28;20033;-70
2022/11/29 00:08:19;;;;;;;21.90;14.97;;;7.60;90.10;;;;;;5032649;28;20108;-70
2022/11/29 00:10:45;;;;;;;22.43;15.47;;;7.60;90.20;;;;;;5032681;28;20120;-70
2022/11/29 00:13:10;;;;;;;20.73;15.30;;;7.60;90.10;;;;;;5032573;28;20093;-70
2022/11/29 00:15:37;;;;;;;19.13;14.07;;;7.50;90.20;;;;;;5032871;28;20403;-69
2022/11/29 00:18:04;;;;;;;22.60;16.27;;;7.50;90.60;;;;;;5032727;28;20034;-70
2022/11/29 00:20:31;;;;;;;21.73;16.07;;;7.50;90.50;;;;;;5032436;28;20103;-70
2022/11/29 00:22:56;;;;;;;21.60;14.30;;;7.50;90.60;;;;;;5032369;28;20037;-70
2022/11/29 00:25:22;;;;;;;22.57;15.30;;;7.50;90.80;;;;;;5015080;28;20561;-70
2022/11/29 00:27:49;;;;;;;20.57;14.47;;;7.50;90.70;;;;;;5032489;28;20040;-70
2022/11/29 00:30:15;;;;;;;20.60;14.57;;;7.50;90.70;;;;;;5032637;28;20555;-71
2022/11/29 00:32:40;;;;;;;20.20;14.83;;;7.40;90.90;;;;;;5032064;28;20124;-71
2022/11/29 00:35:06;;;;;;;19.50;14.17;;;7.40;90.90;;;;;;5032570;28;20022;-71
2022/11/29 00:37:32;;;;;;;19.97;13.67;;;7.40;91.00;;;;;;5032580;28;20369;-70
2022/11/29 00:39:57;;;;;;;20.33;14.13;;;7.40;90.80;;;;;;5032309;28;20041;-70
2022/11/29 00:42:23;;;;;;;21.37;13.47;;;7.40;90.80;;;;;;5032575;28;20030;-70
2022/11/29 00:44:49;;;;;;;19.00;13.50;;;7.40;90.80;;;;;;5032484;28;20030;-70
2022/11/29 00:47:15;;;;;;;21.50;14.40;;;7.40;91.00;;;;;;5032140;28;20037;-70
2022/11/29 00:49:40;;;;;;;18.60;13.03;;;7.40;91.10;;;;;;5032343;28;20487;-70
2022/11/29 00:52:06;;;;;;;17.93;13.27;;;7.40;91.50;;;;;;5032202;28;20067;-70
2022/11/29 00:54:32;;;;;;;17.27;12.83;;;7.40;91.60;;;;;;5032429;28;20030;-70
2022/11/29 00:56:58;;;;;;;17.87;13.27;;;7.40;91.70;;;;;;5032190;28;20048;-70
2022/11/29 00:59:23;;;;;;;19.70;13.20;;;7.40;91.90;;;;;;5032441;28;20034;-70
2022/11/29 01:01:49;;;;;;;15.77;12.30;;;7.40;91.70;;;;;;5014449;28;20400;-70
2022/11/29 01:04:15;;;;;;;15.43;11.40;;;7.40;91.70;;;;;;5032308;28;20035;-70
2022/11/29 01:06:40;;;;;;;17.23;12.00;;;7.30;91.60;;;;;;5032365;28;20363;-70
2022/11/29 01:09:06;;;;;;;17.50;12.53;;;7.30;91.60;;;;;;5032063;28;20084;-70
2022/11/29 01:11:32;;;;;;;15.90;11.57;;;7.30;91.60;;;;;;5032035;28;20052;-70
2022/11/29 01:14:00;;;;;;;15.77;12.37;;;7.30;91.70;;;;;;5032389;28;20029;-70
2022/11/29 01:16:28;;;;;;;18.37;12.43;;;7.30;91.90;;;;;;5032051;28;20033;-70
2022/11/29 01:18:55;;;;;;;17.83;11.77;;;7.30;91.80;;;;;;5032130;28;20132;-70
2022/11/29 01:21:22;;;;;;;17.67;12.33;;;7.30;91.60;;;;;;5032133;28;20099;-70
2022/11/29 01:23:49;;;;;;;15.80;11.53;;;7.30;91.50;;;;;;5032007;28;20046;-71
2022/11/29 01:26:19;;;;;;;15.73;11.67;;;7.30;91.40;;;;;;5032119;28;20045;-70
2022/11/29 01:28:46;;;;;;;18.13;12.30;;;7.30;91.20;;;;;;5032165;28;20033;-70
2022/11/29 01:31:18;;;;;;;15.57;11.50;;;7.30;91.30;;;;;;5031726;28;20488;-70
2022/11/29 01:33:44;;;;;;;16.02;11.60;;;7.20;91.30;;;;;;5031875;28;20040;-70
2022/11/29 01:36:12;;;;;;;15.27;11.60;;;7.20;91.10;;;;;;5032308;28;20430;-70
2022/11/29 01:38:37;;;;;;;18.07;12.10;;;7.20;91.00;;;;;;5031871;28;20044;-70
2022/11/29 01:41:11;;;;;;;16.87;12.00;;;7.20;91.30;;;;;;5032183;28;20038;-70
2022/11/29 01:43:57;;;;;;;15.30;11.83;;;7.20;90.80;;;;;;5031714;28;20037;-70
2022/11/29 01:46:23;;;;;;;16.60;11.60;;;7.20;90.90;;;;;;5035074;28;20112;-70
2022/11/29 01:48:52;;;;;;;15.63;11.27;;;7.20;91.10;;;;;;5035364;28;20030;-71
2022/11/29 01:51:18;;;;;;;18.20;12.07;;;7.10;91.20;;;;;;5035379;28;20121;-70
2022/11/29 01:53:44;;;;;;;18.93;11.73;;;7.10;91.40;;;;;;5035040;28;20117;-70
2022/11/29 01:56:13;;;;;;;16.13;11.20;;;7.10;91.50;;;;;;5035487;28;20042;-70
2022/11/29 01:58:39;;;;;;;15.83;11.10;;;7.10;91.70;;;;;;5033136;28;20037;-69
2022/11/29 02:01:05;;;;;;;16.83;12.00;;;7.10;91.50;;;;;;5032293;28;20117;-71
2022/11/29 02:03:31;;;;;;;16.00;11.17;;;7.10;91.50;;;;;;5032200;28;20120;-70
2022/11/29 02:05:57;;;;;;;15.93;11.40;;;7.10;91.50;;;;;;5034514;28;20038;-71
2022/11/29 02:08:28;;;;;;;14.17;10.90;;;7.10;91.60;;;;;;5034896;28;20033;-70
2022/11/29 02:11:14;;;;;;;15.60;11.27;;;7.10;91.80;;;;;;5034840;28;20120;-69
2022/11/29 02:13:58;;;;;;;14.27;10.43;;;7.00;92.30;;;;;;5020473;28;20045;-70
2022/11/29 02:16:42;;;;;;;13.23;10.23;;;7.00;91.80;;;;;;5034770;28;20045;-70
2022/11/29 02:19:40;;;;;;;13.90;9.80;;;7.00;91.80;;;;;;5034627;28;20029;-70
2022/11/29 02:22:28;;;;;;;13.60;9.63;;;7.00;91.50;;;;;;5000701;28;20428;-70
2022/11/29 02:25:03;;;;;;;15.63;10.43;;;7.00;91.30;;;;;;5034501;28;20051;-70
2022/11/29 02:28:06;;;;;;;13.83;9.87;;;7.00;91.40;;;;;;5034761;28;20119;-70
2022/11/29 02:31:01;;;;;;;14.93;8.90;;;6.90;91.80;;;;;;5034728;28;20033;-70
2022/11/29 02:33:48;;;;;;;13.03;9.30;;;6.90;91.70;;;;;;5033921;28;20049;-71
2022/11/29 02:36:18;;;;;;;12.73;9.20;;;6.90;91.80;;;;;;5034004;28;20033;-69
2022/11/29 02:39:09;;;;;;;13.17;9.63;;;6.90;92.00;;;;;;5034420;28;20034;-70
2022/11/29 02:41:56;;;;;;;12.27;9.27;;;6.90;92.00;;;;;;5034349;28;20038;-70
2022/11/29 02:44:51;;;;;;;12.20;9.17;;;6.90;92.10;;;;;;5034246;28;20553;-70
2022/11/29 02:47:41;;;;;;;12.03;9.17;;;6.90;92.30;;;;;;5033999;28;20087;-70
2022/11/29 02:50:21;;;;;;;11.90;8.87;;;6.90;92.10;;;;;;5034181;28;20061;-70
2022/11/29 02:52:47;;;;;;;13.47;8.90;;;6.90;92.20;;;;;;5034231;28;20380;-70
2022/11/29 02:55:20;;;;;;;11.50;8.93;;;6.90;92.10;;;;;;5034135;28;20037;-69
2022/11/29 02:58:07;;;;;;;12.03;9.03;;;6.90;92.00;;;;;;5034099;28;20098;-70
2022/11/29 03:00:37;;;;;;;10.83;8.50;;;6.90;92.30;;;;;;5033873;28;20048;-70
2022/11/29 03:03:19;;;;;;;11.37;8.50;;;6.90;92.10;;;;;;5033836;28;20038;-70
2022/11/29 03:06:19;;;;;;;11.47;8.87;;;6.90;91.80;;;;;;5034085;28;20483;-70
2022/11/29 03:09:09;;;;;;;10.47;8.10;;;6.90;91.70;;;;;;4963057;28;20039;-70
2022/11/29 03:12:02;;;;;;;11.73;8.53;;;6.90;91.60;;;;;;5033576;28;20041;-69
2022/11/29 03:14:48;;;;;;;;;;;6.90;91.20;;;;;;5034160;28;20034;-70
2022/11/29 03:17:29;;;;;;;10.93;8.57;;;6.90;91.20;;;;;;5032962;28;19905;-70
2022/11/29 03:20:11;;;;;;;11.73;8.27;;;6.90;91.10;;;;;;5033931;28;20033;-71
2022/11/29 03:22:37;;;;;;;11.32;8.75;;;6.90;91.20;;;;;;5033696;28;20033;-70
2022/11/29 03:25:06;;;;;;;12.90;9.20;;;6.90;91.30;;;;;;5033401;28;20148;-70
2022/11/29 03:27:42;;;;;;;12.90;9.50;;;6.90;91.30;;;;;;5033237;28;20044;-70
2022/11/29 03:30:12;;;;;;;12.10;9.07;;;6.90;91.10;;;;;;5033422;28;20506;-70
2022/11/29 03:33:19;;;;;;;12.57;9.43;;;6.90;91.00;;;;;;5033188;28;20128;-70
2022/11/29 03:36:15;;;;;;;14.53;10.00;;;6.90;91.00;;;;;;5022755;28;20034;-70
2022/11/29 03:38:44;;;;;;;14.13;9.77;;;6.90;91.10;;;;;;5033217;28;20119;-71
2022/11/29 03:41:24;;;;;;;13.60;9.67;;;6.90;91.00;;;;;;5033268;28;20053;-70
2022/11/29 03:43:59;;;;;;;13.50;9.77;;;6.90;90.90;;;;;;5033369;28;20499;-70
2022/11/29 03:46:36;;;;;;;15.00;9.87;;;6.90;91.10;;;;;;5033371;28;20395;-70
2022/11/29 03:49:12;;;;;;;13.73;10.00;;;6.90;91.00;;;;;;5033417;28;20041;-70
2022/11/29 03:51:44;;;;;;;13.60;10.67;;;6.90;91.00;;;;;;5032797;28;20411;-70
2022/11/29 03:54:16;;;;;;;13.73;9.70;;;6.90;91.30;;;;;;5033201;28;20038;-70
2022/11/29 03:56:42;;;;;;;12.82;9.93;;;6.90;91.10;;;;;;5033434;28;20033;-70
2022/11/29 03:59:17;;;;;;;13.67;10.03;;;6.90;91.10;;;;;;5033299;28;20046;-70
2022/11/29 04:02:02;;;;;;;14.87;10.70;;;6.90;91.30;;;;;;5032802;28;20041;-70
2022/11/29 04:05:01;;;;;;;15.37;10.67;;;6.90;91.30;;;;;;5032517;28;20379;-70
2022/11/29 04:07:38;;;;;;;14.60;10.50;;;6.90;91.70;;;;;;5013788;28;20124;-70
2022/11/29 04:10:38;;;;;;;17.10;11.77;;;6.90;91.80;;;;;;5032867;28;20060;-70
2022/11/29 04:13:49;;;;;;;18.03;12.20;;;6.90;91.80;;;;;;5032821;28;20041;-70
2022/11/29 04:16:46;;;;;;;16.33;11.13;;;6.90;91.70;;;;;;5028594;28;20069;-70
2022/11/29 04:19:30;;;;;;;15.87;11.13;;;6.90;91.30;;;;;;5032940;28;20395;-70
2022/11/29 04:22:19;;;;;;;18.57;12.07;;;6.90;90.90;;;;;;5032697;28;20037;-70
2022/11/29 04:25:18;;;;;;;18.20;12.40;;;6.90;90.30;;;;;;5032116;28;20061;-70
2022/11/29 04:27:49;;;;;;;18.13;11.67;;;6.90;90.70;;;;;;5032355;28;20399;-70
2022/11/29 04:30:26;;;;;;;17.63;11.30;;;6.90;90.50;;;;;;5032577;28;20088;-71
2022/11/29 04:33:04;;;;;;;19.23;12.47;;;6.80;91.20;;;;;;5032565;28;20128;-71
2022/11/29 04:35:41;;;;;;;17.10;12.20;;;6.80;91.30;;;;;;5032248;28;20030;-70
2022/11/29 04:38:31;;;;;;;16.73;12.03;;;6.90;90.70;;;;;;5032262;28;20037;-70
2022/11/29 04:41:18;;;;;;;19.17;12.63;;;6.90;90.60;;;;;;5032441;28;20116;-70
2022/11/29 04:44:20;;;;;;;19.20;12.87;;;6.90;90.90;;;;;;5032507;28;20033;-70
2022/11/29 04:46:51;;;;;;;18.10;12.90;;;6.90;90.70;;;;;;5014881;28;20033;-70
2022/11/29 04:49:47;;;;;;;20.67;13.70;;;6.90;90.90;;;;;;5032439;28;20038;-70
2022/11/29 04:52:24;;;;;;;18.77;13.70;;;6.90;91.00;;;;;;5032123;28;20042;-70
2022/11/29 04:55:21;;;;;;;20.87;13.47;;;6.90;91.10;;;;;;5032231;28;20036;-71
2022/11/29 04:57:54;;;;;;;24.47;14.20;;;6.80;90.60;;;;;;5031664;28;20038;-70
2022/11/29 05:00:23;;;;;;;20.70;14.37;;;6.80;90.70;;;;;;5032067;28;20566;-70
2022/11/29 05:03:00;;;;;;;20.87;14.63;;;6.80;90.80;;;;;;5031869;28;20030;-69
2022/11/29 05:05:30;;;;;;;21.63;14.23;;;6.80;90.70;;;;;;5014387;28;20045;-70
2022/11/29 05:07:58;;;;;;;22.23;14.07;;;6.80;90.70;;;;;;5032073;28;20455;-70
2022/11/29 05:10:38;;;;;;;18.53;13.30;;;6.80;90.90;;;;;;5032094;28;20038;-70
2022/11/29 05:13:22;;;;;;;21.63;13.97;;;6.80;91.00;;;;;;5032036;28;20041;-71
2022/11/29 05:15:48;;;;;;;20.93;14.23;;;6.80;90.80;;;;;;5032258;28;20037;-70
2022/11/29 05:18:56;;;;;;;21.37;13.60;;;6.80;90.70;;;;;;5032221;28;20623;-69
2022/11/29 05:21:30;;;;;;;22.83;15.07;;;6.80;90.90;;;;;;5035520;28;20037;-70
2022/11/29 05:24:23;;;;;;;20.30;14.37;;;6.80;90.60;;;;;;5027908;28;20054;-70
2022/11/29 05:26:54;;;;;;;20.60;13.63;;;6.80;90.60;;;;;;5015919;28;20181;-69
2022/11/29 05:29:40;;;;;;;20.20;13.87;;;6.80;90.60;;;;;;5015733;28;20045;-70
2022/11/29 05:32:21;;;;;;;20.33;14.43;;;6.80;90.50;;;;;;5015607;28;20042;-70
2022/11/29 05:35:07;;;;;;;22.30;14.47;;;6.80;90.50;;;;;;5015777;28;20034;-70
2022/11/29 05:37:44;;;;;;;21.23;14.27;;;6.70;90.90;;;;;;5015973;28;20061;-71
2022/11/29 05:40:42;;;;;;;23.47;14.70;;;6.70;91.00;;;;;;5015850;28;20452;-71
2022/11/29 05:43:32;;;;;;;25.70;15.80;;;6.70;90.80;;;;;;5015746;28;20113;-71
2022/11/29 05:46:16;;;;;;;22.23;14.63;;;6.70;90.50;;;;;;5015043;28;20030;-71
2022/11/29 05:48:50;;;;;;;20.27;12.90;;;6.70;90.10;;;;;;5015123;28;20037;-70
2022/11/29 05:51:21;;;;;;;19.47;13.37;;;6.70;90.00;;;;;;5014950;28;20400;-69
2022/11/29 05:54:05;;;;;;;20.33;12.97;;;6.80;89.10;;;;;;5015498;28;20443;-70
2022/11/29 05:56:55;;;;;;;20.17;13.87;;;6.80;88.30;;;;;;5025537;28;20053;-71
2022/11/29 05:59:24;;;;;;;22.33;14.23;;;6.80;87.80;;;;;;5034585;28;20034;-70
2022/11/29 06:02:08;;;;;;;20.47;14.27;;;6.80;88.00;;;;;;5035626;28;20036;-70
2022/11/29 06:04:56;;;;;;;22.53;14.17;;;6.80;88.20;;;;;;5035471;28;20502;-71
2022/11/29 06:07:59;;;;;;;22.13;13.00;;;6.80;89.20;;;;;;5035335;28;20129;-71
2022/11/29 06:10:31;;;;;;;22.05;14.32;;;6.80;88.70;;;;;;5035981;28;20033;-70
2022/11/29 06:13:21;;;;;;;20.10;13.88;;;6.80;88.70;;;;;;5035400;28;20487;-70
2022/11/29 06:16:06;;;;;;;23.83;13.93;;;6.80;88.60;;;;;;5035090;28;20037;-70
2022/11/29 06:18:56;;;;;;;20.10;13.67;;;6.80;88.90;;;;;;5035352;28;20035;-70
2022/11/29 06:21:22;;;;;;;19.60;13.97;;;6.70;88.70;;;;;;5017213;28;20439;-70
2022/11/29 06:23:57;;;;;;;18.63;13.03;;;6.70;88.70;;;;;;5034893;28;20133;-70
2022/11/29 06:26:38;;;;;;;20.57;13.43;;;6.70;88.40;;;;;;5034987;28;20106;-70
2022/11/29 06:29:22;;;;;;;19.67;13.10;;;6.70;88.20;;;;;;5035056;28;20443;-70
2022/11/29 06:32:04;;;;;;;20.23;13.67;;;6.80;88.30;;;;;;5034540;28;20055;-70
2022/11/29 06:35:01;;;;;;;21.05;13.60;;;6.80;88.20;;;;;;5034835;28;20049;-70
2022/11/29 06:37:38;;;;;;;21.87;13.67;;;6.80;87.00;;;;;;5032930;28;20033;-70
2022/11/29 06:40:08;;;;;;;21.63;14.30;;;6.80;86.40;;;;;;5034591;28;20121;-70
2022/11/29 06:42:34;;;;;;;19.57;13.50;;;6.80;86.60;;;;;;5034689;28;20570;-70
2022/11/29 06:45:00;;;;;;;18.37;12.73;;;6.80;86.80;;;;;;5034668;28;20132;-69
2022/11/29 06:47:42;;;;;;;24.17;14.37;;;6.80;86.50;;;;;;5034748;28;20041;-70
2022/11/29 06:50:33;;;;;;;20.30;13.25;;;6.90;86.30;;;;;;5034678;28;20043;-70
2022/11/29 06:53:17;;;;;;;20.20;13.17;;;6.90;84.80;;;;;;5034389;28;20040;-70
2022/11/29 06:56:36;;;;;;;19.60;13.40;;;6.90;84.30;;;;;;5034225;28;20065;-70
2022/11/29 06:59:07;;;;;;;21.43;13.27;;;6.90;83.70;;;;;;4935033;29;20402;-70
2022/11/29 07:01:43;;;;;;;20.10;12.93;;;6.90;83.40;;;;;;4935100;29;20043;-70
2022/11/29 07:04:38;;;;;;;19.23;12.10;;;6.90;82.60;;;;;;4991434;28;20545;-70
2022/11/29 07:07:12;;;;;;;18.90;12.77;;;6.90;82.90;;;;;;5034101;28;20104;-70
2022/11/29 07:09:38;;;;;;;21.37;13.37;;;6.90;82.80;;;;;;5016450;28;20030;-70
2022/11/29 07:12:04;;;;;;;20.23;12.93;;;6.90;83.30;;;;;;5034155;28;20491;-70
2022/11/29 07:14:30;;;;;;;18.63;12.10;;;6.90;82.80;;;;;;5034226;28;20126;-70
2022/11/29 07:17:19;;;;;;;18.63;12.27;;;6.90;82.60;;;;;;5016388;28;20550;-70
2022/11/29 07:20:07;;;;;;;19.10;12.47;;;6.90;83.20;;;;;;5033870;28;20036;-70
2022/11/29 07:23:02;;;;;;;18.70;13.30;;;6.90;83.60;;;;;;5033627;28;20117;-70
2022/11/29 07:25:37;;;;;;;20.70;13.13;;;6.90;82.80;;;;;;5015885;28;20411;-70
2022/11/29 07:28:18;;;;;;;18.67;11.93;;;6.80;83.30;;;;;;5033795;28;20065;-70
2022/11/29 07:30:56;;;;;;;18.87;13.10;;;6.80;84.10;;;;;;5033606;28;20041;-70
2022/11/29 07:33:29;;;;;;;23.17;13.83;;;6.80;83.60;;;;;;5033937;28;20127;-70
2022/11/29 07:36:07;;;;;;;21.50;12.45;;;6.90;83.60;;;;;;5033711;28;20036;-70
2022/11/29 07:38:52;;;;;;;20.90;11.73;;;6.90;84.30;;;;;;5033240;28;20538;-70
2022/11/29 07:41:43;;;;;;;20.43;12.43;;;6.90;83.00;;;;;;5033444;28;20594;-70
2022/11/29 07:44:16;;;;;;;21.13;12.47;;;6.90;81.70;;;;;;5015484;28;20124;-69
2022/11/29 07:46:42;;;;;;;18.77;12.70;;;7.00;82.30;;;;;;5033819;28;20048;-70
2022/11/29 07:49:11;;;;;;;20.93;13.37;;;7.00;82.20;;;;;;5033519;28;20399;-69
2022/11/29 07:51:36;;;;;;;17.90;11.73;;;7.00;82.20;;;;;;5033392;28;20055;-69
2022/11/29 07:54:03;;;;;;;17.27;11.97;;;7.00;81.70;;;;;;5033580;28;20033;-69
2022/11/29 07:56:28;;;;;;;18.27;11.93;;;7.00;82.00;;;;;;5033528;28;20395;-69
2022/11/29 07:58:54;;;;;;;17.43;11.43;;;7.00;82.20;;;;;;5033496;28;20116;-69
2022/11/29 08:01:20;;;;;;;20.77;13.00;;;7.00;81.70;;;;;;5033205;28;20049;-70
2022/11/29 08:03:45;;;;;;;20.50;12.83;;;7.00;81.80;;;;;;5033363;28;20041;-70
2022/11/29 08:06:11;;;;;;;20.23;13.00;;;7.00;82.90;;;;;;5033160;28;20034;-70
2022/11/29 08:08:37;;;;;;;23.43;13.17;;;7.10;82.50;;;;;;5032947;28;20087;-69
2022/11/29 08:11:10;;;;;;;21.97;12.97;;;7.10;82.30;;;;;;5033083;28;20116;-69
2022/11/29 08:13:36;;;;;;;25.40;13.73;;;7.10;81.70;;;;;;5033164;28;20042;-69
2022/11/29 08:16:02;;;;;;;20.73;12.83;;;7.10;81.40;;;;;;5033028;28;20036;-69
2022/11/29 08:18:27;;;;;;;18.07;13.03;;;7.10;82.20;;;;;;5033077;28;20025;-69
2022/11/29 08:20:53;;;;;;;19.27;12.43;;;7.10;81.40;;;;;;5033198;28;20079;-69
2022/11/29 08:23:19;;;;;;;27.23;13.57;;;7.20;80.70;;;;;;5036702;22;20447;-70
2022/11/29 08:25:44;;;;;;;19.63;12.77;;;7.20;81.00;;;;;;5013254;28;20034;-76
2022/11/29 08:28:10;;;;;;;20.40;12.23;;;7.20;80.80;;;;;;5013451;28;20030;-78
2022/11/29 08:30:36;;;;;;;19.70;12.63;;;7.20;81.00;;;;;;5012965;28;20113;-70
2022/11/29 08:33:02;;;;;;;19.97;13.00;;;7.20;79.80;;;;;;5013103;28;20049;-70
2022/11/29 08:35:29;;;;;;;21.20;13.60;;;7.20;79.80;;;;;;5013187;28;20041;-76
2022/11/29 08:37:54;;;;;;;20.93;12.87;;;7.10;80.80;;;;;;5013103;28;20053;-78
2022/11/29 08:40:20;;;;;;;22.43;12.80;;;7.20;81.70;;;;;;5013256;28;20030;-76
2022/11/29 08:42:46;;;;;;;23.30;14.23;;;7.20;81.40;;;;;;5012846;28;20116;-71
2022/11/29 08:45:12;;;;;;;19.33;12.87;;;7.20;82.00;;;;;;5013354;28;20030;-70
2022/11/29 08:47:40;;;;;;;18.17;12.40;;;7.20;81.80;;;;;;5012744;28;20046;-70
2022/11/29 08:50:11;;;;;;;18.23;12.60;;;7.20;81.60;;;;;;5012945;28;20065;-70
2022/11/29 08:55:26;;;;;;;21.80;12.67;;;7.30;81.20;;;;;;5016837;28;20040;-70
2022/11/29 08:57:52;;;;;;;17.87;12.57;;;7.30;81.50;;;;;;5016958;28;20390;-70
2022/11/29 09:00:22;;;;;;;21.80;13.40;;;7.30;80.60;;;;;;5016948;28;20507;-71
2022/11/29 09:02:48;;;;;;;21.00;13.43;;;7.40;79.80;;;;;;5017209;28;20053;-70
2022/11/29 09:05:14;;;;;;;17.87;12.03;;;7.40;79.80;;;;;;5016819;28;20037;-70
2022/11/29 09:07:40;;;;;;;17.87;12.13;;;7.40;79.30;;;;;;5016941;28;20040;-70
2022/11/29 09:10:07;;;;;;;25.60;12.73;;;7.40;78.30;;;;;;5016752;28;20101;-71
2022/11/29 09:12:36;;;;;;;20.17;13.33;;;7.40;78.90;;;;;;5016748;28;20056;-71
2022/11/29 09:15:08;;;;;;;20.63;12.83;;;7.40;80.00;;;;;;5016693;28;20038;-71
2022/11/29 09:17:34;;;;;;;19.10;12.98;;;7.40;79.50;;;;;;5016660;28;20049;-71
2022/11/29 09:19:59;;;;;;;21.53;13.07;;;7.40;79.30;;;;;;5016456;28;20030;-71
2022/11/29 09:22:25;;;;;;;20.33;12.43;;;7.40;79.10;;;;;;5016129;28;20046;-78
2022/11/29 09:24:51;;;;;;;21.93;13.67;;;7.40;80.10;;;;;;5016572;28;20034;-74
2022/11/29 09:27:16;;;;;;;21.43;13.27;;;7.50;79.90;;;;;;5016278;28;20069;-71
2022/11/29 09:29:42;;;;;;;21.87;14.50;;;7.50;80.00;;;;;;5016528;28;20037;-71
2022/11/29 09:32:08;;;;;;;22.03;13.63;;;7.50;79.80;;;;;;5016238;28;20400;-71
2022/11/29 09:34:34;;;;;;;21.33;13.23;;;7.50;79.70;;;;;;5016396;28;20313;-71
2022/11/29 09:37:00;;;;;;;21.47;13.63;;;7.60;79.40;;;;;;5016331;28;20034;-71
2022/11/29 09:39:25;;;;;;;21.37;13.73;;;7.60;78.60;;;;;;5016273;28;20030;-71
2022/11/29 09:42:06;;;;;;;22.67;13.23;;;7.60;79.10;;;;;;5016040;28;20131;-71
2022/11/29 09:44:53;;;;;;;19.63;12.43;;;7.70;78.40;;;;;;5015903;28;20088;-72
2022/11/29 09:47:43;;;;;;;19.57;12.83;;;7.70;77.60;;;;;;5015702;28;20041;-72
2022/11/29 09:50:35;;;;;;;19.00;12.50;;;7.80;77.80;;;;;;5015573;28;20034;-72
2022/11/29 09:53:19;;;;;;;17.80;11.93;;;7.80;77.80;;;;;;5015680;28;20484;-73
2022/11/29 09:56:04;;;;;;;20.17;12.23;;;7.80;76.60;;;;;;5015852;28;20117;-75
2022/11/29 09:58:42;;;;;;;20.57;13.53;;;7.80;75.30;;;;;;5015512;28;20080;-73
2022/11/29 10:01:15;;;;;;;21.83;12.40;;;7.70;77.10;;;;;;5015552;28;20045;-72
2022/11/29 10:03:46;;;;;;;19.00;13.00;;;7.80;76.90;;;;;;5015868;28;20484;-77
2022/11/29 10:06:26;;;;;;;18.80;12.03;;;7.70;76.40;;;;;;5014874;28;20491;-72
2022/11/29 10:09:15;;;;;;;19.47;12.27;;;7.70;76.00;;;;;;5015530;28;20065;-74
2022/11/29 10:11:53;;;;;;;20.57;12.97;;;7.70;76.90;;;;;;5015358;28;20042;-75
2022/11/29 10:14:25;;;;;;;21.57;12.40;;;7.80;76.40;;;;;;5015606;28;20029;-76
2022/11/29 10:17:11;;;;;;;18.73;12.77;;;7.80;76.70;;;;;;5015534;28;20112;-74
2022/11/29 10:19:43;;;;;;;24.73;13.03;;;7.90;75.30;;;;;;5014958;28;20030;-73
2022/11/29 10:22:14;;;;;;;21.25;13.43;;;7.90;75.20;;;;;;5015245;28;20447;-73
2022/11/29 10:24:44;;;;;;;19.67;12.00;;;8.00;75.10;;;;;;5015341;28;20112;-73
2022/11/29 10:27:20;;;;;;;20.80;12.87;;;8.00;74.80;;;;;;5014963;28;20064;-74
2022/11/29 10:29:50;;;;;;;21.53;13.37;;;8.00;74.90;;;;;;5015335;28;20495;-73
2022/11/29 10:32:24;;;;;;;18.03;12.23;;;8.10;74.00;;;;;;5015123;28;20038;-73
2022/11/29 10:34:50;;;;;;;22.23;12.83;;;8.10;73.50;;;;;;5015204;28;20122;-74
2022/11/29 10:37:19;;;;;;;21.20;13.83;;;8.10;74.30;;;;;;4997425;28;20040;-73
2022/11/29 10:40:03;;;;;;;21.70;13.30;;;8.10;74.30;;;;;;5014921;28;20400;-73
2022/11/29 10:42:47;;;;;;;20.93;12.83;;;8.10;74.90;;;;;;5014963;28;20118;-73
2022/11/29 10:45:22;;;;;;;21.47;12.90;;;8.10;74.60;;;;;;5014572;28;20034;-73
2022/11/29 10:47:49;;;;;;;19.77;13.20;;;8.10;73.90;;;;;;5014234;28;20400;-73
2022/11/29 10:50:27;;;;;;;20.63;13.60;;;8.10;74.20;;;;;;5014095;28;20041;-73
2022/11/29 10:52:58;;;;;;;19.10;12.97;;;8.10;74.60;;;;;;5014222;28;20073;-74
2022/11/29 10:55:25;;;;;;;17.87;12.27;;;8.10;74.30;;;;;;5013981;28;20030;-73
2022/11/29 10:58:10;;;;;;;20.17;12.73;;;8.10;72.60;;;;;;5014106;28;20029;-73
2022/11/29 11:00:57;;;;;;;20.63;12.50;;;8.10;72.70;;;;;;5014089;28;20061;-73
2022/11/29 11:03:42;;;;;;;21.90;13.23;;;8.20;72.80;;;;;;5013781;28;20052;-74
2022/11/29 11:06:21;;;;;;;18.10;12.47;;;8.20;72.40;;;;;;5014023;28;20030;-73
2022/11/29 11:08:52;;;;;;;22.90;13.53;;;8.10;72.10;;;;;;5014446;28;20415;-73
2022/11/29 11:11:31;;;;;;;25.30;14.60;;;8.20;72.50;;;;;;4996494;28;20369;-73
2022/11/29 11:14:25;;;;;;;21.87;13.30;;;8.20;73.10;;;;;;5014247;28;20535;-73
2022/11/29 11:16:51;;;;;;;24.43;14.63;;;8.20;72.80;;;;;;4996364;28;20037;-73
2022/11/29 11:19:27;;;;;;;23.17;14.60;;;8.10;72.70;;;;;;5013721;28;20042;-73
2022/11/29 11:21:58;;;;;;;23.47;14.20;;;8.10;72.70;;;;;;5013461;28;20365;-73
2022/11/29 11:24:43;;;;;;;25.10;14.57;;;8.10;72.50;;;;;;4996017;28;20042;-73
2022/11/29 11:27:08;;;;;;;23.70;15.33;;;8.10;72.20;;;;;;5013858;28;20038;-73
2022/11/29 11:29:38;;;;;;;26.30;15.83;;;8.10;72.90;;;;;;5013702;28;20042;-73
2022/11/29 11:32:06;;;;;;;23.73;15.10;;;8.10;72.20;;;;;;5013846;28;20046;-72
2022/11/29 11:34:36;;;;;;;25.30;15.63;;;8.10;72.90;;;;;;5014037;28;20399;-74
2022/11/29 11:37:20;;;;;;;23.87;15.90;;;8.10;72.90;;;;;;5014078;28;20026;-73
2022/11/29 11:39:48;;;;;;;26.37;15.73;;;8.20;71.80;;;;;;5013736;28;20045;-72
2022/11/29 11:42:38;;;;;;;27.40;16.47;;;8.20;71.60;;;;;;5013906;28;20048;-72
2022/11/29 11:45:04;;;;;;;25.17;16.10;;;8.20;71.90;;;;;;5013907;28;20172;-71
2022/11/29 11:47:33;;;;;;;25.57;15.60;;;8.10;72.80;;;;;;5013821;28;20496;-72
2022/11/29 11:50:02;;;;;;;27.47;14.97;;;8.10;72.40;;;;;;5013591;28;20034;-72
2022/11/29 11:52:51;;;;;;;25.53;15.17;;;8.20;72.30;;;;;;5013761;28;20046;-72
2022/11/29 11:55:41;;;;;;;24.97;15.13;;;8.20;72.40;;;;;;5013647;28;20084;-72
2022/11/29 11:58:17;;;;;;;24.30;15.43;;;8.20;72.10;;;;;;5013742;28;20061;-72
2022/11/29 12:00:45;;;;;;;26.47;16.37;;;8.20;72.30;;;;;;5013458;28;20570;-72
2022/11/29 12:03:29;;;;;;;28.30;16.27;;;8.20;72.70;;;;;;5013276;28;20064;-72
2022/11/29 12:06:32;;;;;;;22.47;13.93;;;8.20;72.60;;;;;;5013243;28;20492;-73
2022/11/29 12:09:02;;;;;;;22.73;14.98;;;8.20;72.00;;;;;;5013363;28;20034;-73
2022/11/29 12:11:38;;;;;;;24.30;14.97;;;8.20;72.00;;;;;;5013330;28;20049;-72
2022/11/29 12:14:05;;;;;;;23.03;14.93;;;8.20;72.30;;;;;;5013419;28;20034;-72
2022/11/29 12:16:37;;;;;;;24.27;15.40;;;8.30;72.60;;;;;;5013578;28;20084;-72
2022/11/29 12:19:22;;;;;;;25.77;15.37;;;8.20;72.80;;;;;;5013207;28;20479;-72
2022/11/29 12:21:53;;;;;;;30.83;15.77;;;8.30;72.60;;;;;;5013003;28;20109;-72
2022/11/29 12:24:37;;;;;;;25.07;16.03;;;8.30;72.00;;;;;;5013078;28;20091;-72
2022/11/29 12:27:04;;;;;;;22.33;14.20;;;8.30;72.10;;;;;;5013231;28;20048;-72
2022/11/29 12:29:33;;;;;;;24.97;16.57;;;8.30;70.60;;;;;;5012463;28;20045;-73
2022/11/29 12:32:04;;;;;;;27.07;16.27;;;8.30;71.20;;;;;;5012925;28;20046;-72
2022/11/29 12:34:39;;;;;;;25.03;16.23;;;8.30;71.90;;;;;;5013243;28;20038;-73
2022/11/29 12:37:19;;;;;;;27.20;17.20;;;8.30;72.00;;;;;;5013224;28;20480;-73
2022/11/29 12:40:12;;;;;;;23.90;16.17;;;8.30;72.30;;;;;;5013097;28;20104;-72
2022/11/29 12:42:53;;;;;;;27.58;16.40;;;8.30;72.10;;;;;;5013221;28;20034;-72
2022/11/29 12:45:30;;;;;;;25.30;15.70;;;8.30;72.40;;;;;;5012883;28;20046;-72
2022/11/29 12:47:59;;;;;;;25.90;16.40;;;8.30;72.20;;;;;;5013124;28;20030;-72
2022/11/29 12:50:31;;;;;;;24.13;15.53;;;8.30;72.30;;;;;;5013099;28;20034;-72
2022/11/29 12:53:37;;;;;;;23.00;16.55;;;8.30;72.20;;;;;;5013033;28;20129;-72
2022/11/29 12:56:19;;;;;;;24.80;15.57;;;8.30;71.80;;;;;;4979814;28;20076;-72
2022/11/29 12:58:51;;;;;;;27.10;16.00;;;8.30;72.90;;;;;;5013169;28;20503;-72
2022/11/29 13:01:28;;;;;;;24.90;15.80;;;8.30;72.60;;;;;;4995317;28;20038;-73
2022/11/29 13:03:54;;;;;;;24.03;15.03;;;8.30;73.40;;;;;;5012461;28;20042;-73
2022/11/29 13:06:35;;;;;;;24.80;14.40;;;8.30;72.20;;;;;;5012803;28;20034;-72
2022/11/29 13:09:10;;;;;;;21.30;14.47;;;8.30;71.10;;;;;;5012828;28;20045;-72
2022/11/29 13:11:39;;;;;;;28.37;15.97;;;8.30;71.30;;;;;;5012653;28;20050;-73
2022/11/29 13:14:15;;;;;;;22.67;15.63;;;8.30;70.50;;;;;;5012802;28;20061;-72
2022/11/29 13:17:00;;;;;;;25.67;16.47;;;8.30;71.00;;;;;;5012760;28;20042;-72
2022/11/29 13:19:51;;;;;;;24.73;15.60;;;8.30;71.40;;;;;;5012696;28;20440;-72
2022/11/29 13:22:30;;;;;;;24.83;15.20;;;8.30;71.50;;;;;;5012906;28;20511;-72
2022/11/29 13:25:05;;;;;;;23.97;14.73;;;8.30;70.90;;;;;;5012434;28;20045;-73